createdAt,value
2022-08-09T06:52:52.288Z,22.68
2022-08-09T06:55:23.003Z,22.77
2022-08-09T06:58:02.955Z,22.86
2022-08-09T07:00:51.245Z,22.94
2022-08-09T07:03:26.936Z,22.83
2022-08-09T07:06:03.896Z,23.00
2022-08-09T07:08:32.617Z,23.10
2022-08-09T07:10:59.632Z,23.13
2022-08-09T07:13:30.570Z,23.26
2022-08-09T07:16:43.423Z,23.26
2022-08-09T07:18:47.517Z,23.41
2022-08-09T07:21:17.016Z,23.48
2022-08-09T07:23:56.721Z,23.55
2022-08-09T07:26:26.095Z,23.69
2022-08-09T07:29:01.275Z,23.75
2022-08-09T07:31:38.610Z,23.85
2022-08-09T07:34:20.382Z,23.92
2022-08-09T07:36:49.385Z,24.01
2022-08-09T07:39:20.596Z,23.95
2022-08-09T07:42:05.094Z,23.84
2022-08-09T07:44:51.133Z,23.94
2022-08-09T07:47:29.548Z,23.84
2022-08-09T07:50:08.596Z,23.94
2022-08-09T07:52:38.031Z,24.15
2022-08-09T07:55:08.939Z,24.21
2022-08-09T07:57:37.072Z,24.41
2022-08-09T08:00:13.791Z,24.60
2022-08-09T08:02:48.079Z,24.76
2022-08-09T08:05:18.061Z,24.76
2022-08-09T08:08:43.933Z,24.97
2022-08-09T08:10:34.301Z,24.96
2022-08-09T08:13:03.922Z,25.04
2022-08-09T08:15:35.480Z,25.17
2022-08-09T08:18:04.888Z,25.39
2022-08-09T08:20:33.156Z,25.28
2022-08-09T08:23:16.120Z,25.56
2022-08-09T08:25:50.369Z,25.42
2022-08-09T08:28:25.974Z,25.69
2022-08-09T08:31:08.941Z,25.93
2022-08-09T08:33:40.805Z,25.95
2022-08-09T08:36:29.275Z,26.06
2022-08-09T08:38:58.626Z,26.27
2022-08-09T08:41:50.364Z,25.96
2022-08-09T08:44:14.969Z,26.18
2022-08-09T08:47:02.421Z,26.36
2022-08-09T08:49:38.513Z,26.46
2022-08-09T08:52:35.283Z,26.72
2022-08-09T08:55:04.015Z,26.92
2022-08-09T08:57:35.490Z,27.00
2022-08-09T09:00:13.079Z,27.25
2022-08-09T09:02:52.638Z,27.35
2022-08-09T09:05:33.359Z,27.56
2022-08-09T09:08:29.818Z,27.47
2022-08-09T09:11:02.885Z,27.21
2022-08-09T09:13:41.522Z,27.34
2022-08-09T09:16:17.281Z,27.50
2022-08-09T09:19:21.609Z,27.73
2022-08-09T09:22:07.624Z,28.04
2022-08-09T09:24:39.795Z,28.22
2022-08-09T09:28:04.274Z,28.29
2022-08-09T09:30:24.746Z,28.43
2022-08-09T09:33:15.957Z,27.89
2022-08-09T09:36:00.575Z,28.21
2022-08-09T09:38:57.423Z,28.34
2022-08-09T09:41:26.194Z,28.64
2022-08-09T09:44:10.874Z,28.65
2022-08-09T09:46:46.058Z,28.72
2022-08-09T09:49:23.576Z,28.49
2022-08-09T09:52:35.821Z,29.06
2022-08-09T09:55:31.987Z,29.42
2022-08-09T09:58:16.530Z,29.65
2022-08-09T10:00:58.726Z,29.37
2022-08-09T10:04:00.757Z,29.67
2022-08-09T10:06:42.899Z,30.02
2022-08-09T10:09:22.134Z,30.26
2022-08-09T10:12:12.954Z,30.23
2022-08-09T10:14:51.310Z,30.36
2022-08-09T10:17:50.101Z,30.44
2022-08-09T10:20:32.972Z,30.44
2022-08-09T10:23:16.923Z,30.57
2022-08-09T10:26:04.964Z,30.74
2022-08-09T10:28:34.224Z,30.72
2022-08-09T10:34:10.761Z,30.81
2022-08-09T10:36:38.518Z,31.35
2022-08-09T10:39:06.062Z,31.38
2022-08-09T10:41:43.365Z,31.67
2022-08-09T10:44:10.732Z,31.90
2022-08-09T10:46:54.282Z,31.82
2022-08-09T10:49:51.307Z,30.72
2022-08-09T10:52:26.442Z,29.97
2022-08-09T10:54:53.742Z,29.85
2022-08-09T10:57:21.524Z,29.61
2022-08-09T10:59:57.907Z,29.15
2022-08-09T11:03:07.402Z,29.09
2022-08-09T11:05:30.117Z,29.32
2022-08-09T11:08:43.728Z,29.44
2022-08-09T11:11:16.545Z,29.28
2022-08-09T11:13:50.383Z,29.29
2022-08-09T11:16:35.117Z,29.28
2022-08-09T11:19:08.021Z,29.35
2022-08-09T11:21:57.533Z,30.18
2022-08-09T11:25:09.868Z,31.27
2022-08-09T11:28:04.750Z,31.26
2022-08-09T11:30:33.605Z,30.65
2022-08-09T11:33:10.489Z,29.79
2022-08-09T11:35:49.501Z,29.87
2022-08-09T11:38:35.521Z,29.55
2022-08-09T11:41:15.935Z,29.46
2022-08-09T11:43:48.886Z,29.27
2022-08-09T11:46:26.516Z,29.38
2022-08-09T11:49:00.980Z,29.59
2022-08-09T11:53:00.582Z,29.55
2022-08-09T11:55:39.919Z,30.55
2022-08-09T11:58:13.514Z,30.83
2022-08-09T12:00:53.692Z,31.16
2022-08-09T12:03:54.896Z,31.87
2022-08-09T12:06:16.453Z,31.09
2022-08-09T12:08:53.097Z,30.57
2022-08-09T12:11:27.331Z,30.45
2022-08-09T12:14:09.719Z,30.36
2022-08-09T12:16:44.762Z,30.17
2022-08-09T12:19:14.049Z,30.03
2022-08-09T12:21:50.835Z,29.96
2022-08-09T12:24:25.178Z,29.89
2022-08-09T12:29:15.303Z,29.87
2022-08-09T12:30:01.541Z,29.68
2022-08-09T12:32:43.044Z,29.55
2022-08-09T12:35:13.165Z,29.72
2022-08-09T12:37:51.609Z,29.75
2022-08-09T12:40:21.247Z,29.88
2022-08-09T12:42:50.942Z,30.25
2022-08-09T12:45:34.787Z,30.77
2022-08-09T12:48:20.104Z,30.89
2022-08-09T12:50:57.445Z,30.93
2022-08-09T12:53:40.792Z,30.19
2022-08-09T12:56:39.241Z,30.15
2022-08-09T12:59:13.992Z,30.15
2022-08-09T13:01:48.842Z,29.67
2022-08-09T13:04:36.711Z,29.72
2022-08-09T13:07:14.377Z,29.44
2022-08-09T13:09:43.253Z,29.27
2022-08-09T13:12:12.259Z,29.28
2022-08-09T13:14:47.210Z,29.00
2022-08-09T13:17:43.863Z,28.93
2022-08-09T13:20:16.229Z,28.80
2022-08-09T13:23:06.072Z,28.72
2022-08-09T13:25:42.356Z,28.63
2022-08-09T13:28:18.996Z,28.43
2022-08-09T13:32:17.562Z,28.44
2022-08-09T13:33:58.772Z,28.56
2022-08-09T13:36:41.051Z,28.60
2022-08-09T13:41:31.116Z,28.76
2022-08-09T13:42:11.925Z,29.50
2022-08-09T13:44:42.120Z,29.91
2022-08-09T13:47:29.049Z,30.05
2022-08-09T13:50:01.297Z,29.97
2022-08-09T13:52:30.343Z,29.91
2022-08-09T13:54:58.905Z,30.07
2022-08-09T13:57:35.622Z,29.98
2022-08-09T14:00:08.190Z,29.86
2022-08-09T14:02:42.053Z,29.65
2022-08-09T14:05:10.776Z,29.63
2022-08-09T14:07:42.319Z,29.63
2022-08-09T14:10:17.280Z,30.00
2022-08-09T14:12:58.856Z,30.09
2022-08-09T14:16:06.794Z,30.76
2022-08-09T14:18:19.744Z,30.99
2022-08-09T14:20:55.135Z,30.47
2022-08-09T14:23:40.292Z,30.12
2022-08-09T14:26:10.659Z,30.11
2022-08-09T14:28:38.643Z,30.09
2022-08-09T14:31:07.611Z,31.01
2022-08-09T14:33:38.117Z,30.56
2022-08-09T14:36:19.982Z,30.46
2022-08-09T14:38:52.989Z,32.66
2022-08-09T14:41:34.478Z,34.33
2022-08-09T14:44:07.473Z,32.91
2022-08-09T14:47:04.902Z,33.60
2022-08-09T14:49:26.762Z,32.35
2022-08-09T14:51:58.799Z,33.97
2022-08-09T14:54:28.610Z,33.82
2022-08-09T14:56:58.642Z,33.65
2022-08-09T14:59:29.176Z,32.38
2022-08-09T15:01:57.655Z,32.76
2022-08-09T15:04:25.508Z,32.45
2022-08-09T15:06:52.542Z,32.90
2022-08-09T15:09:51.969Z,32.81
2022-08-09T15:12:09.811Z,32.04
2022-08-09T15:14:39.181Z,31.38
2022-08-09T15:17:09.960Z,30.89
2022-08-09T15:19:54.569Z,30.39
2022-08-09T15:22:26.183Z,30.14
2022-08-09T15:24:54.376Z,29.97
2022-08-09T15:27:21.966Z,29.81
2022-08-09T15:30:58.999Z,29.88
2022-08-09T15:32:36.255Z,29.73
2022-08-09T15:35:40.266Z,29.67
2022-08-09T15:37:56.351Z,29.50
2022-08-09T15:40:33.750Z,29.35
2022-08-09T15:43:01.747Z,29.26
2022-08-09T15:45:29.273Z,29.23
2022-08-09T15:48:06.494Z,29.12
2022-08-09T15:50:43.825Z,29.06
2022-08-09T15:53:32.631Z,28.91
2022-08-09T15:56:23.303Z,28.89
2022-08-09T15:58:46.508Z,28.87
2022-08-09T16:01:13.502Z,28.89
2022-08-09T16:03:41.552Z,28.95
2022-08-09T16:06:27.404Z,28.96
2022-08-09T16:08:56.755Z,28.91
2022-08-09T16:11:30.913Z,29.00
2022-08-09T16:14:04.708Z,28.97
2022-08-09T16:16:37.346Z,28.99
2022-08-09T16:19:09.325Z,28.97
2022-08-09T16:21:37.509Z,28.88
2022-08-09T16:24:20.123Z,28.82
2022-08-09T16:26:56.812Z,28.75
2022-08-09T16:29:37.915Z,28.74
2022-08-09T16:32:33.037Z,28.86
2022-08-09T16:34:58.158Z,28.87
2022-08-09T16:37:55.203Z,28.79
2022-08-09T16:40:20.554Z,28.63
2022-08-09T16:43:03.057Z,28.49
2022-08-09T16:45:30.563Z,28.45
2022-08-09T16:48:39.217Z,28.19
2022-08-09T16:50:59.160Z,28.14
2022-08-09T16:53:32.574Z,28.12
2022-08-09T16:56:04.826Z,28.01
2022-08-09T16:58:35.775Z,28.62
2022-08-09T17:01:04.402Z,28.35
2022-08-09T17:03:31.522Z,28.11
2022-08-09T17:06:07.399Z,27.88
2022-08-09T17:09:00.109Z,27.70
2022-08-09T17:11:37.670Z,27.48
2022-08-09T17:14:25.881Z,27.35
2022-08-09T17:17:01.536Z,27.26
2022-08-09T17:19:46.776Z,27.16
2022-08-09T17:22:24.778Z,27.07
2022-08-09T17:25:10.265Z,27.01
2022-08-09T17:27:48.953Z,27.00
2022-08-09T17:30:17.170Z,26.96
2022-08-09T17:32:46.835Z,26.91
2022-08-09T17:35:14.541Z,26.87
2022-08-09T17:38:14.295Z,26.87
2022-08-09T17:40:32.156Z,26.84
2022-08-09T17:43:11.170Z,26.78
2022-08-09T17:46:04.060Z,26.73
2022-08-09T17:48:32.254Z,26.71
2022-08-09T17:51:00.923Z,26.67
2022-08-09T17:53:42.958Z,26.65
2022-08-09T17:56:10.887Z,26.60
2022-08-09T17:58:37.906Z,26.55
2022-08-09T18:01:09.637Z,26.49
2022-08-09T18:03:42.564Z,26.44
2022-08-09T18:06:14.795Z,26.39
2022-08-09T18:08:55.991Z,26.32
2022-08-09T18:11:23.949Z,26.24
2022-08-09T18:13:57.714Z,26.13
2022-08-09T18:16:30.349Z,26.08
2022-08-09T18:19:04.247Z,25.98
2022-08-09T18:21:46.378Z,25.95
2022-08-09T18:24:17.034Z,25.93
2022-08-09T18:26:46.432Z,25.86
2022-08-09T18:30:39.092Z,25.82
2022-08-09T18:32:05.495Z,25.73
2022-08-09T18:34:35.347Z,25.70
2022-08-09T18:37:48.542Z,25.80
2022-08-09T18:39:58.427Z,25.91
2022-08-09T18:42:29.227Z,25.95
2022-08-09T18:44:57.045Z,25.91
2022-08-09T18:47:27.611Z,25.84
2022-08-09T18:49:59.936Z,25.82
2022-08-09T18:52:34.845Z,25.73
2022-08-09T18:55:03.003Z,25.68
2022-08-09T18:57:42.749Z,25.57
2022-08-09T19:00:19.884Z,25.56
2022-08-09T19:02:51.325Z,25.50
2022-08-09T19:05:28.804Z,25.47
2022-08-09T19:08:10.601Z,25.41
2022-08-09T19:10:41.259Z,25.37
2022-08-09T19:13:22.585Z,25.38
2022-08-09T19:15:58.884Z,25.28
2022-08-09T19:18:33.352Z,25.21
2022-08-09T19:21:09.330Z,25.05
2022-08-09T19:24:37.354Z,24.97
2022-08-09T19:26:29.513Z,24.96
2022-08-09T19:29:02.438Z,25.08
2022-08-09T19:31:45.325Z,24.99
2022-08-09T19:34:22.193Z,24.92
2022-08-09T19:36:52.620Z,24.84
2022-08-09T19:39:42.835Z,24.83
2022-08-09T19:42:08.765Z,24.72
